sensor_id;sensor_type;location;lat;lon;timestamp;P1;durP1;ratioP1;P2;durP2;ratioP2
7977;SDS011;4034;48.004;10.902;2022-12-07T00:00:40;32.33;;;21.50;;
7977;SDS011;4034;48.004;10.902;2022-12-07T00:03:06;31.67;;;20.63;;
7977;SDS011;4034;48.004;10.902;2022-12-07T00:05:32;31.40;;;21.67;;
7977;SDS011;4034;48.004;10.902;2022-12-07T00:07:58;34.42;;;22.52;;
7977;SDS011;4034;48.004;10.902;2022-12-07T00:10:24;36.30;;;21.77;;
7977;SDS011;4034;48.004;10.902;2022-12-07T00:12:50;31.77;;;22.20;;
7977;SDS011;4034;48.004;10.902;2022-12-07T00:15:16;33.20;;;21.42;;
7977;SDS011;4034;48.004;10.902;2022-12-07T00:17:42;28.40;;;20.70;;
7977;SDS011;4034;48.004;10.902;2022-12-07T00:20:08;32.93;;;21.70;;
7977;SDS011;4034;48.004;10.902;2022-12-07T00:22:34;35.95;;;21.75;;
7977;SDS011;4034;48.004;10.902;2022-12-07T00:25:00;31.05;;;21.15;;
7977;SDS011;4034;48.004;10.902;2022-12-07T00:27:26;31.30;;;20.45;;
7977;SDS011;4034;48.004;10.902;2022-12-07T00:29:52;34.67;;;21.27;;
7977;SDS011;4034;48.004;10.902;2022-12-07T00:32:18;31.58;;;20.83;;
7977;SDS011;4034;48.004;10.902;2022-12-07T00:34:44;34.10;;;21.67;;
7977;SDS011;4034;48.004;10.902;2022-12-07T00:37:10;31.60;;;21.43;;
7977;SDS011;4034;48.004;10.902;2022-12-07T00:39:37;28.73;;;20.58;;
7977;SDS011;4034;48.004;10.902;2022-12-07T00:42:03;24.05;;;18.80;;
7977;SDS011;4034;48.004;10.902;2022-12-07T00:44:29;28.55;;;20.02;;
7977;SDS011;4034;48.004;10.902;2022-12-07T00:46:55;25.10;;;19.27;;
7977;SDS011;4034;48.004;10.902;2022-12-07T00:49:21;24.15;;;18.98;;
7977;SDS011;4034;48.004;10.902;2022-12-07T00:51:48;23.83;;;17.83;;
7977;SDS011;4034;48.004;10.902;2022-12-07T00:54:14;21.58;;;17.13;;
7977;SDS011;4034;48.004;10.902;2022-12-07T00:56:40;24.27;;;18.30;;
7977;SDS011;4034;48.004;10.902;2022-12-07T00:59:06;24.25;;;17.98;;
7977;SDS011;4034;48.004;10.902;2022-12-07T01:01:33;23.05;;;18.00;;
7977;SDS011;4034;48.004;10.902;2022-12-07T01:04:00;23.60;;;17.33;;
7977;SDS011;4034;48.004;10.902;2022-12-07T01:06:27;25.98;;;18.65;;
7977;SDS011;4034;48.004;10.902;2022-12-07T01:08:53;24.33;;;18.05;;
7977;SDS011;4034;48.004;10.902;2022-12-07T01:11:21;24.93;;;17.80;;
7977;SDS011;4034;48.004;10.902;2022-12-07T01:13:48;26.02;;;18.33;;
7977;SDS011;4034;48.004;10.902;2022-12-07T01:16:15;30.17;;;18.85;;
7977;SDS011;4034;48.004;10.902;2022-12-07T01:18:41;29.63;;;19.35;;
7977;SDS011;4034;48.004;10.902;2022-12-07T01:21:11;28.55;;;18.15;;
7977;SDS011;4034;48.004;10.902;2022-12-07T01:23:37;31.25;;;19.63;;
7977;SDS011;4034;48.004;10.902;2022-12-07T01:26:04;29.38;;;19.17;;
7977;SDS011;4034;48.004;10.902;2022-12-07T01:28:30;34.50;;;20.05;;
7977;SDS011;4034;48.004;10.902;2022-12-07T01:31:00;32.67;;;20.80;;
7977;SDS011;4034;48.004;10.902;2022-12-07T01:33:27;29.23;;;19.20;;
7977;SDS011;4034;48.004;10.902;2022-12-07T01:35:54;31.83;;;18.90;;
7977;SDS011;4034;48.004;10.902;2022-12-07T01:38:20;31.35;;;19.85;;
7977;SDS011;4034;48.004;10.902;2022-12-07T01:40:50;34.25;;;18.88;;
7977;SDS011;4034;48.004;10.902;2022-12-07T01:43:18;31.90;;;19.50;;
7977;SDS011;4034;48.004;10.902;2022-12-07T01:45:44;30.17;;;19.17;;
7977;SDS011;4034;48.004;10.902;2022-12-07T01:48:11;30.80;;;18.27;;
7977;SDS011;4034;48.004;10.902;2022-12-07T01:50:38;28.70;;;18.60;;
7977;SDS011;4034;48.004;10.902;2022-12-07T01:53:06;34.17;;;18.85;;
7977;SDS011;4034;48.004;10.902;2022-12-07T01:55:34;31.27;;;18.92;;
7977;SDS011;4034;48.004;10.902;2022-12-07T01:58:03;28.47;;;18.27;;
7977;SDS011;4034;48.004;10.902;2022-12-07T02:00:29;33.67;;;19.27;;
7977;SDS011;4034;48.004;10.902;2022-12-07T02:03:07;29.23;;;18.90;;
7977;SDS011;4034;48.004;10.902;2022-12-07T02:05:34;30.17;;;18.80;;
7977;SDS011;4034;48.004;10.902;2022-12-07T02:08:01;32.25;;;19.52;;
7977;SDS011;4034;48.004;10.902;2022-12-07T02:10:28;31.43;;;19.03;;
7977;SDS011;4034;48.004;10.902;2022-12-07T02:13:06;32.33;;;20.08;;
7977;SDS011;4034;48.004;10.902;2022-12-07T02:15:38;33.35;;;19.67;;
7977;SDS011;4034;48.004;10.902;2022-12-07T02:20:37;28.47;;;18.60;;
7977;SDS011;4034;48.004;10.902;2022-12-07T02:23:29;27.73;;;18.08;;
7977;SDS011;4034;48.004;10.902;2022-12-07T02:29:00;25.20;;;17.80;;
7977;SDS011;4034;48.004;10.902;2022-12-07T02:31:32;24.90;;;17.60;;
7977;SDS011;4034;48.004;10.902;2022-12-07T02:34:08;22.40;;;16.77;;
7977;SDS011;4034;48.004;10.902;2022-12-07T02:36:46;20.37;;;15.97;;
7977;SDS011;4034;48.004;10.902;2022-12-07T02:39:20;22.48;;;16.45;;
7977;SDS011;4034;48.004;10.902;2022-12-07T02:41:59;23.45;;;16.73;;
7977;SDS011;4034;48.004;10.902;2022-12-07T02:44:27;22.55;;;15.73;;
7977;SDS011;4034;48.004;10.902;2022-12-07T02:46:54;23.23;;;16.38;;
7977;SDS011;4034;48.004;10.902;2022-12-07T02:49:22;20.80;;;15.77;;
7977;SDS011;4034;48.004;10.902;2022-12-07T02:51:48;22.08;;;15.90;;
7977;SDS011;4034;48.004;10.902;2022-12-07T02:54:15;16.90;;;14.07;;
7977;SDS011;4034;48.004;10.902;2022-12-07T03:02:07;15.20;;;13.13;;
7977;SDS011;4034;48.004;10.902;2022-12-07T03:04:52;14.23;;;12.67;;
7977;SDS011;4034;48.004;10.902;2022-12-07T03:15:22;13.10;;;11.77;;
7977;SDS011;4034;48.004;10.902;2022-12-07T03:17:51;12.03;;;10.93;;
7977;SDS011;4034;48.004;10.902;2022-12-07T03:20:19;13.15;;;11.85;;
7977;SDS011;4034;48.004;10.902;2022-12-07T03:22:46;11.88;;;10.77;;
7977;SDS011;4034;48.004;10.902;2022-12-07T03:25:13;12.10;;;10.90;;
7977;SDS011;4034;48.004;10.902;2022-12-07T03:27:42;11.80;;;10.63;;
7977;SDS011;4034;48.004;10.902;2022-12-07T03:30:13;12.10;;;10.90;;
7977;SDS011;4034;48.004;10.902;2022-12-07T03:32:42;12.15;;;10.95;;
7977;SDS011;4034;48.004;10.902;2022-12-07T03:35:14;12.00;;;10.90;;
7977;SDS011;4034;48.004;10.902;2022-12-07T03:40:13;11.75;;;10.70;;
7977;SDS011;4034;48.004;10.902;2022-12-07T03:42:41;11.10;;;10.10;;
7977;SDS011;4034;48.004;10.902;2022-12-07T03:45:07;11.93;;;10.82;;
7977;SDS011;4034;48.004;10.902;2022-12-07T03:50:07;12.40;;;11.27;;
7977;SDS011;4034;48.004;10.902;2022-12-07T03:52:53;12.45;;;11.30;;
7977;SDS011;4034;48.004;10.902;2022-12-07T03:55:23;13.45;;;12.00;;
7977;SDS011;4034;48.004;10.902;2022-12-07T03:57:51;11.93;;;10.73;;
7977;SDS011;4034;48.004;10.902;2022-12-07T04:00:18;12.10;;;11.00;;
7977;SDS011;4034;48.004;10.902;2022-12-07T04:02:44;11.70;;;10.70;;
7977;SDS011;4034;48.004;10.902;2022-12-07T04:05:11;12.80;;;11.52;;
7977;SDS011;4034;48.004;10.902;2022-12-07T04:07:37;13.30;;;12.00;;
7977;SDS011;4034;48.004;10.902;2022-12-07T04:10:03;13.57;;;12.27;;
7977;SDS011;4034;48.004;10.902;2022-12-07T04:12:29;12.80;;;11.70;;
7977;SDS011;4034;48.004;10.902;2022-12-07T04:14:55;13.23;;;11.98;;
7977;SDS011;4034;48.004;10.902;2022-12-07T04:17:21;13.23;;;11.98;;
7977;SDS011;4034;48.004;10.902;2022-12-07T04:19:47;13.73;;;12.23;;
7977;SDS011;4034;48.004;10.902;2022-12-07T04:22:13;14.30;;;13.00;;
7977;SDS011;4034;48.004;10.902;2022-12-07T04:24:39;14.32;;;12.93;;
7977;SDS011;4034;48.004;10.902;2022-12-07T04:27:05;14.60;;;13.20;;
7977;SDS011;4034;48.004;10.902;2022-12-07T04:29:31;15.73;;;14.23;;
7977;SDS011;4034;48.004;10.902;2022-12-07T04:31:57;15.32;;;13.82;;
7977;SDS011;4034;48.004;10.902;2022-12-07T04:34:23;15.40;;;13.90;;
7977;SDS011;4034;48.004;10.902;2022-12-07T04:36:49;15.65;;;14.07;;
7977;SDS011;4034;48.004;10.902;2022-12-07T04:39:26;16.52;;;14.93;;
7977;SDS011;4034;48.004;10.902;2022-12-07T04:41:52;15.40;;;13.90;;
7977;SDS011;4034;48.004;10.902;2022-12-07T04:44:19;16.63;;;15.02;;
7977;SDS011;4034;48.004;10.902;2022-12-07T04:46:45;16.58;;;14.98;;
7977;SDS011;4034;48.004;10.902;2022-12-07T04:49:11;17.77;;;15.98;;
7977;SDS011;4034;48.004;10.902;2022-12-07T04:51:38;16.83;;;15.23;;
7977;SDS011;4034;48.004;10.902;2022-12-07T04:54:04;16.15;;;14.55;;
7977;SDS011;4034;48.004;10.902;2022-12-07T04:56:30;15.60;;;14.20;;
7977;SDS011;4034;48.004;10.902;2022-12-07T04:58:56;17.08;;;15.48;;
7977;SDS011;4034;48.004;10.902;2022-12-07T05:01:22;17.13;;;15.48;;
7977;SDS011;4034;48.004;10.902;2022-12-07T05:03:48;16.88;;;15.07;;
7977;SDS011;4034;48.004;10.902;2022-12-07T05:06:14;17.13;;;15.50;;
7977;SDS011;4034;48.004;10.902;2022-12-07T05:08:41;18.02;;;16.20;;
7977;SDS011;4034;48.004;10.902;2022-12-07T05:11:08;18.00;;;16.10;;
7977;SDS011;4034;48.004;10.902;2022-12-07T05:13:34;17.37;;;15.63;;
7977;SDS011;4034;48.004;10.902;2022-12-07T05:16:01;18.03;;;16.23;;
7977;SDS011;4034;48.004;10.902;2022-12-07T05:18:27;18.23;;;16.30;;
7977;SDS011;4034;48.004;10.902;2022-12-07T05:20:53;18.73;;;16.83;;
7977;SDS011;4034;48.004;10.902;2022-12-07T05:23:19;18.17;;;16.27;;
7977;SDS011;4034;48.004;10.902;2022-12-07T05:25:46;18.25;;;16.45;;
7977;SDS011;4034;48.004;10.902;2022-12-07T05:28:12;17.98;;;16.15;;
7977;SDS011;4034;48.004;10.902;2022-12-07T05:30:38;18.20;;;16.40;;
7977;SDS011;4034;48.004;10.902;2022-12-07T05:33:04;17.30;;;15.50;;
7977;SDS011;4034;48.004;10.902;2022-12-07T05:35:30;17.35;;;15.75;;
7977;SDS011;4034;48.004;10.902;2022-12-07T05:37:56;16.60;;;15.00;;
7977;SDS011;4034;48.004;10.902;2022-12-07T05:40:23;17.85;;;16.15;;
7977;SDS011;4034;48.004;10.902;2022-12-07T05:42:49;17.83;;;16.02;;
7977;SDS011;4034;48.004;10.902;2022-12-07T05:45:15;17.67;;;15.77;;
7977;SDS011;4034;48.004;10.902;2022-12-07T05:47:41;18.70;;;16.88;;
7977;SDS011;4034;48.004;10.902;2022-12-07T05:50:07;17.57;;;15.80;;
7977;SDS011;4034;48.004;10.902;2022-12-07T05:52:33;17.77;;;16.02;;
7977;SDS011;4034;48.004;10.902;2022-12-07T05:54:59;16.50;;;14.80;;
7977;SDS011;4034;48.004;10.902;2022-12-07T05:57:25;19.50;;;17.45;;
7977;SDS011;4034;48.004;10.902;2022-12-07T05:59:51;20.73;;;18.52;;
7977;SDS011;4034;48.004;10.902;2022-12-07T06:02:17;22.20;;;19.90;;
7977;SDS011;4034;48.004;10.902;2022-12-07T06:04:44;25.67;;;22.88;;
7977;SDS011;4034;48.004;10.902;2022-12-07T06:07:11;22.60;;;20.17;;
7977;SDS011;4034;48.004;10.902;2022-12-07T06:09:37;27.08;;;21.38;;
7977;SDS011;4034;48.004;10.902;2022-12-07T06:12:03;89.77;;;53.43;;
7977;SDS011;4034;48.004;10.902;2022-12-07T06:14:48;65.90;;;42.05;;
7977;SDS011;4034;48.004;10.902;2022-12-07T06:17:14;42.15;;;31.88;;
7977;SDS011;4034;48.004;10.902;2022-12-07T06:19:40;22.08;;;19.70;;
7977;SDS011;4034;48.004;10.902;2022-12-07T06:22:07;54.95;;;38.70;;
7977;SDS011;4034;48.004;10.902;2022-12-07T06:24:34;22.70;;;19.23;;
7977;SDS011;4034;48.004;10.902;2022-12-07T06:26:59;23.48;;;20.20;;
7977;SDS011;4034;48.004;10.902;2022-12-07T06:29:26;27.75;;;21.90;;
7977;SDS011;4034;48.004;10.902;2022-12-07T06:31:51;25.10;;;20.80;;
7977;SDS011;4034;48.004;10.902;2022-12-07T06:34:18;27.23;;;21.75;;
7977;SDS011;4034;48.004;10.902;2022-12-07T06:36:45;36.75;;;27.55;;
7977;SDS011;4034;48.004;10.902;2022-12-07T06:39:15;54.67;;;38.15;;
7977;SDS011;4034;48.004;10.902;2022-12-07T06:41:41;27.03;;;22.40;;
7977;SDS011;4034;48.004;10.902;2022-12-07T06:44:07;45.22;;;30.77;;
7977;SDS011;4034;48.004;10.902;2022-12-07T06:46:34;28.50;;;23.13;;
7977;SDS011;4034;48.004;10.902;2022-12-07T06:49:00;30.63;;;22.58;;
7977;SDS011;4034;48.004;10.902;2022-12-07T06:51:26;30.93;;;23.10;;
7977;SDS011;4034;48.004;10.902;2022-12-07T06:53:52;29.52;;;23.35;;
7977;SDS011;4034;48.004;10.902;2022-12-07T06:56:18;31.55;;;23.20;;
7977;SDS011;4034;48.004;10.902;2022-12-07T06:58:44;30.27;;;22.45;;
7977;SDS011;4034;48.004;10.902;2022-12-07T07:01:11;29.33;;;22.65;;
7977;SDS011;4034;48.004;10.902;2022-12-07T07:03:37;31.83;;;24.08;;
7977;SDS011;4034;48.004;10.902;2022-12-07T07:06:04;33.90;;;25.73;;
7977;SDS011;4034;48.004;10.902;2022-12-07T07:08:30;32.45;;;23.38;;
7977;SDS011;4034;48.004;10.902;2022-12-07T07:10:56;32.00;;;23.73;;
7977;SDS011;4034;48.004;10.902;2022-12-07T07:13:22;30.60;;;22.67;;
7977;SDS011;4034;48.004;10.902;2022-12-07T07:15:48;32.47;;;23.73;;
7977;SDS011;4034;48.004;10.902;2022-12-07T07:18:14;32.50;;;23.70;;
7977;SDS011;4034;48.004;10.902;2022-12-07T07:20:40;32.90;;;24.30;;
7977;SDS011;4034;48.004;10.902;2022-12-07T07:23:07;34.90;;;24.90;;
7977;SDS011;4034;48.004;10.902;2022-12-07T07:25:33;34.78;;;24.55;;
7977;SDS011;4034;48.004;10.902;2022-12-07T07:27:59;32.72;;;24.10;;
7977;SDS011;4034;48.004;10.902;2022-12-07T07:30:25;32.47;;;24.02;;
7977;SDS011;4034;48.004;10.902;2022-12-07T07:32:55;34.85;;;24.70;;
7977;SDS011;4034;48.004;10.902;2022-12-07T07:35:21;34.17;;;24.50;;
7977;SDS011;4034;48.004;10.902;2022-12-07T07:37:47;33.73;;;25.10;;
7977;SDS011;4034;48.004;10.902;2022-12-07T07:40:13;29.27;;;23.85;;
7977;SDS011;4034;48.004;10.902;2022-12-07T07:42:39;30.47;;;22.77;;
7977;SDS011;4034;48.004;10.902;2022-12-07T07:45:05;29.90;;;23.58;;
7977;SDS011;4034;48.004;10.902;2022-12-07T07:47:32;27.58;;;23.17;;
7977;SDS011;4034;48.004;10.902;2022-12-07T07:49:58;27.23;;;22.63;;
7977;SDS011;4034;48.004;10.902;2022-12-07T07:52:24;27.05;;;22.35;;
7977;SDS011;4034;48.004;10.902;2022-12-07T07:54:50;25.10;;;21.57;;
7977;SDS011;4034;48.004;10.902;2022-12-07T07:57:16;26.95;;;22.65;;
7977;SDS011;4034;48.004;10.902;2022-12-07T07:59:42;28.27;;;22.88;;
7977;SDS011;4034;48.004;10.902;2022-12-07T08:02:15;26.50;;;22.10;;
7977;SDS011;4034;48.004;10.902;2022-12-07T08:04:41;28.70;;;23.50;;
7977;SDS011;4034;48.004;10.902;2022-12-07T08:07:07;28.60;;;23.45;;
7977;SDS011;4034;48.004;10.902;2022-12-07T08:09:33;29.13;;;22.85;;
7977;SDS011;4034;48.004;10.902;2022-12-07T08:11:59;26.88;;;22.10;;
7977;SDS011;4034;48.004;10.902;2022-12-07T08:14:25;25.47;;;22.00;;
7977;SDS011;4034;48.004;10.902;2022-12-07T08:16:52;24.88;;;20.58;;
7977;SDS011;4034;48.004;10.902;2022-12-07T08:19:18;24.90;;;21.65;;
7977;SDS011;4034;48.004;10.902;2022-12-07T08:21:44;25.38;;;21.48;;
7977;SDS011;4034;48.004;10.902;2022-12-07T08:24:10;25.67;;;21.73;;
7977;SDS011;4034;48.004;10.902;2022-12-07T08:26:36;25.73;;;22.02;;
7977;SDS011;4034;48.004;10.902;2022-12-07T08:29:02;24.03;;;20.60;;
7977;SDS011;4034;48.004;10.902;2022-12-07T08:31:28;28.50;;;21.85;;
7977;SDS011;4034;48.004;10.902;2022-12-07T08:33:54;26.58;;;21.50;;
7977;SDS011;4034;48.004;10.902;2022-12-07T08:36:20;24.35;;;20.63;;
7977;SDS011;4034;48.004;10.902;2022-12-07T08:38:49;26.65;;;21.50;;
7977;SDS011;4034;48.004;10.902;2022-12-07T08:41:15;25.92;;;21.83;;
7977;SDS011;4034;48.004;10.902;2022-12-07T08:43:41;27.02;;;23.52;;
7977;SDS011;4034;48.004;10.902;2022-12-07T08:48:44;26.08;;;21.40;;
7977;SDS011;4034;48.004;10.902;2022-12-07T08:51:13;28.13;;;21.98;;
7977;SDS011;4034;48.004;10.902;2022-12-07T08:53:39;27.38;;;21.88;;
7977;SDS011;4034;48.004;10.902;2022-12-07T08:56:05;26.73;;;22.75;;
7977;SDS011;4034;48.004;10.902;2022-12-07T08:58:32;25.75;;;21.02;;
7977;SDS011;4034;48.004;10.902;2022-12-07T09:00:58;23.40;;;20.30;;
7977;SDS011;4034;48.004;10.902;2022-12-07T09:03:24;24.52;;;21.45;;
7977;SDS011;4034;48.004;10.902;2022-12-07T09:05:51;25.08;;;21.67;;
7977;SDS011;4034;48.004;10.902;2022-12-07T09:08:17;24.02;;;20.60;;
7977;SDS011;4034;48.004;10.902;2022-12-07T09:10:43;24.13;;;20.73;;
7977;SDS011;4034;48.004;10.902;2022-12-07T09:13:10;22.67;;;19.65;;
7977;SDS011;4034;48.004;10.902;2022-12-07T09:15:36;22.45;;;19.10;;
7977;SDS011;4034;48.004;10.902;2022-12-07T09:18:02;22.47;;;19.63;;
7977;SDS011;4034;48.004;10.902;2022-12-07T09:20:28;20.23;;;18.13;;
7977;SDS011;4034;48.004;10.902;2022-12-07T09:22:54;19.85;;;17.58;;
7977;SDS011;4034;48.004;10.902;2022-12-07T09:25:20;20.53;;;18.43;;
7977;SDS011;4034;48.004;10.902;2022-12-07T09:27:46;19.13;;;17.13;;
7977;SDS011;4034;48.004;10.902;2022-12-07T09:30:12;18.10;;;16.20;;
7977;SDS011;4034;48.004;10.902;2022-12-07T09:32:39;17.33;;;15.52;;
7977;SDS011;4034;48.004;10.902;2022-12-07T09:35:05;17.60;;;15.73;;
7977;SDS011;4034;48.004;10.902;2022-12-07T09:37:31;17.83;;;15.93;;
7977;SDS011;4034;48.004;10.902;2022-12-07T09:40:00;17.05;;;15.35;;
7977;SDS011;4034;48.004;10.902;2022-12-07T09:42:27;16.95;;;15.30;;
7977;SDS011;4034;48.004;10.902;2022-12-07T09:44:54;17.27;;;15.52;;
7977;SDS011;4034;48.004;10.902;2022-12-07T09:47:21;16.70;;;15.10;;
7977;SDS011;4034;48.004;10.902;2022-12-07T09:49:47;15.60;;;14.10;;
7977;SDS011;4034;48.004;10.902;2022-12-07T09:54:43;15.02;;;13.60;;
7977;SDS011;4034;48.004;10.902;2022-12-07T09:57:11;13.95;;;12.55;;
7977;SDS011;4034;48.004;10.902;2022-12-07T09:59:37;14.43;;;13.13;;
7977;SDS011;4034;48.004;10.902;2022-12-07T10:04:48;14.23;;;12.82;;
7977;SDS011;4034;48.004;10.902;2022-12-07T10:07:14;14.75;;;13.35;;
7977;SDS011;4034;48.004;10.902;2022-12-07T10:09:40;14.60;;;13.20;;
7977;SDS011;4034;48.004;10.902;2022-12-07T10:12:09;14.68;;;13.27;;
7977;SDS011;4034;48.004;10.902;2022-12-07T10:14:39;13.68;;;12.38;;
7977;SDS011;4034;48.004;10.902;2022-12-07T10:22:37;12.40;;;11.20;;
7977;SDS011;4034;48.004;10.902;2022-12-07T10:25:19;11.75;;;10.65;;
7977;SDS011;4034;48.004;10.902;2022-12-07T10:27:57;12.43;;;11.32;;
7977;SDS011;4034;48.004;10.902;2022-12-07T10:30:23;12.18;;;11.07;;
7977;SDS011;4034;48.004;10.902;2022-12-07T10:32:49;13.43;;;12.23;;
7977;SDS011;4034;48.004;10.902;2022-12-07T10:35:20;12.48;;;11.30;;
7977;SDS011;4034;48.004;10.902;2022-12-07T10:37:46;12.63;;;11.50;;
7977;SDS011;4034;48.004;10.902;2022-12-07T10:43:00;12.73;;;11.43;;
7977;SDS011;4034;48.004;10.902;2022-12-07T10:45:26;12.30;;;11.20;;
7977;SDS011;4034;48.004;10.902;2022-12-07T10:48:15;12.05;;;11.00;;
7977;SDS011;4034;48.004;10.902;2022-12-07T11:08:53;15.23;;;13.73;;
7977;SDS011;4034;48.004;10.902;2022-12-07T11:19:26;10.20;;;9.32;;
7977;SDS011;4034;48.004;10.902;2022-12-07T11:24:26;10.48;;;9.57;;
7977;SDS011;4034;48.004;10.902;2022-12-07T11:36:51;14.32;;;12.98;;
7977;SDS011;4034;48.004;10.902;2022-12-07T11:46:47;8.45;;;7.75;;
7977;SDS011;4034;48.004;10.902;2022-12-07T11:54:21;6.80;;;6.22;;
7977;SDS011;4034;48.004;10.902;2022-12-07T11:56:50;8.07;;;7.32;;
7977;SDS011;4034;48.004;10.902;2022-12-07T11:59:18;10.00;;;8.38;;
7977;SDS011;4034;48.004;10.902;2022-12-07T12:06:58;8.20;;;7.50;;
7977;SDS011;4034;48.004;10.902;2022-12-07T12:23:06;5.93;;;5.53;;
7977;SDS011;4034;48.004;10.902;2022-12-07T12:25:37;6.40;;;6.00;;
7977;SDS011;4034;48.004;10.902;2022-12-07T12:28:04;7.43;;;6.93;;
7977;SDS011;4034;48.004;10.902;2022-12-07T12:33:19;5.63;;;5.05;;
7977;SDS011;4034;48.004;10.902;2022-12-07T12:36:17;6.07;;;5.57;;
7977;SDS011;4034;48.004;10.902;2022-12-07T12:38:34;5.78;;;5.28;;
7977;SDS011;4034;48.004;10.902;2022-12-07T12:43:58;6.15;;;5.65;;
7977;SDS011;4034;48.004;10.902;2022-12-07T12:51:49;5.67;;;5.27;;
7977;SDS011;4034;48.004;10.902;2022-12-07T13:01:47;6.07;;;5.57;;
7977;SDS011;4034;48.004;10.902;2022-12-07T13:04:18;35.22;;;31.92;;
7977;SDS011;4034;48.004;10.902;2022-12-07T13:06:47;6.18;;;5.75;;
7977;SDS011;4034;48.004;10.902;2022-12-07T13:09:20;6.47;;;5.97;;
7977;SDS011;4034;48.004;10.902;2022-12-07T13:11:47;6.53;;;6.03;;
7977;SDS011;4034;48.004;10.902;2022-12-07T13:16:58;7.03;;;6.45;;
7977;SDS011;4034;48.004;10.902;2022-12-07T13:24:54;7.00;;;6.47;;
7977;SDS011;4034;48.004;10.902;2022-12-07T13:27:21;7.40;;;6.70;;
7977;SDS011;4034;48.004;10.902;2022-12-07T13:29:47;7.55;;;6.88;;
7977;SDS011;4034;48.004;10.902;2022-12-07T13:32:23;6.80;;;6.20;;
7977;SDS011;4034;48.004;10.902;2022-12-07T13:34:49;6.43;;;5.82;;
7977;SDS011;4034;48.004;10.902;2022-12-07T13:37:28;6.43;;;5.93;;
7977;SDS011;4034;48.004;10.902;2022-12-07T13:40:12;5.95;;;5.55;;
7977;SDS011;4034;48.004;10.902;2022-12-07T13:42:43;6.43;;;5.93;;
7977;SDS011;4034;48.004;10.902;2022-12-07T13:50:02;6.03;;;5.53;;
7977;SDS011;4034;48.004;10.902;2022-12-07T13:52:47;6.63;;;6.13;;
7977;SDS011;4034;48.004;10.902;2022-12-07T13:55:14;7.30;;;6.70;;
7977;SDS011;4034;48.004;10.902;2022-12-07T13:57:41;7.63;;;6.93;;
7977;SDS011;4034;48.004;10.902;2022-12-07T14:00:15;7.05;;;6.55;;
7977;SDS011;4034;48.004;10.902;2022-12-07T14:05:31;8.85;;;8.15;;
7977;SDS011;4034;48.004;10.902;2022-12-07T14:07:58;8.33;;;7.53;;
7977;SDS011;4034;48.004;10.902;2022-12-07T14:10:28;8.98;;;8.20;;
7977;SDS011;4034;48.004;10.902;2022-12-07T14:12:55;10.63;;;9.63;;
7977;SDS011;4034;48.004;10.902;2022-12-07T14:15:22;10.13;;;8.95;;
7977;SDS011;4034;48.004;10.902;2022-12-07T14:17:52;9.63;;;8.73;;
7977;SDS011;4034;48.004;10.902;2022-12-07T14:20:28;51.83;;;31.50;;
7977;SDS011;4034;48.004;10.902;2022-12-07T14:22:56;17.58;;;13.57;;
7977;SDS011;4034;48.004;10.902;2022-12-07T14:25:23;62.10;;;31.30;;
7977;SDS011;4034;48.004;10.902;2022-12-07T14:30:15;146.57;;;70.50;;
7977;SDS011;4034;48.004;10.902;2022-12-07T14:32:42;19.05;;;16.80;;
7977;SDS011;4034;48.004;10.902;2022-12-07T14:35:13;13.90;;;12.70;;
7977;SDS011;4034;48.004;10.902;2022-12-07T14:37:41;10.95;;;10.05;;
7977;SDS011;4034;48.004;10.902;2022-12-07T14:40:07;9.65;;;8.85;;
7977;SDS011;4034;48.004;10.902;2022-12-07T14:42:33;9.25;;;8.52;;
7977;SDS011;4034;48.004;10.902;2022-12-07T14:45:00;9.18;;;8.35;;
7977;SDS011;4034;48.004;10.902;2022-12-07T14:47:26;9.63;;;8.77;;
7977;SDS011;4034;48.004;10.902;2022-12-07T14:49:52;10.10;;;9.20;;
7977;SDS011;4034;48.004;10.902;2022-12-07T14:52:19;10.80;;;9.70;;
7977;SDS011;4034;48.004;10.902;2022-12-07T14:54:46;10.20;;;9.30;;
7977;SDS011;4034;48.004;10.902;2022-12-07T14:57:12;10.98;;;9.90;;
7977;SDS011;4034;48.004;10.902;2022-12-07T14:59:38;10.57;;;9.57;;
7977;SDS011;4034;48.004;10.902;2022-12-07T15:02:05;10.05;;;9.15;;
7977;SDS011;4034;48.004;10.902;2022-12-07T15:04:31;17.38;;;15.00;;
7977;SDS011;4034;48.004;10.902;2022-12-07T15:06:57;13.98;;;12.65;;
7977;SDS011;4034;48.004;10.902;2022-12-07T15:09:24;11.85;;;10.75;;
7977;SDS011;4034;48.004;10.902;2022-12-07T15:11:50;12.07;;;10.77;;
7977;SDS011;4034;48.004;10.902;2022-12-07T15:14:16;11.60;;;10.60;;
7977;SDS011;4034;48.004;10.902;2022-12-07T15:16:42;13.75;;;12.45;;
7977;SDS011;4034;48.004;10.902;2022-12-07T15:19:12;28.98;;;24.15;;
7977;SDS011;4034;48.004;10.902;2022-12-07T15:21:39;32.70;;;27.15;;
7977;SDS011;4034;48.004;10.902;2022-12-07T15:24:05;17.85;;;15.90;;
7977;SDS011;4034;48.004;10.902;2022-12-07T15:26:32;15.80;;;14.25;;
7977;SDS011;4034;48.004;10.902;2022-12-07T15:28:58;15.38;;;13.77;;
7977;SDS011;4034;48.004;10.902;2022-12-07T15:31:24;10.88;;;9.77;;
7977;SDS011;4034;48.004;10.902;2022-12-07T15:33:50;10.07;;;9.10;;
7977;SDS011;4034;48.004;10.902;2022-12-07T15:36:23;9.90;;;8.90;;
7977;SDS011;4034;48.004;10.902;2022-12-07T15:38:49;9.88;;;8.98;;
7977;SDS011;4034;48.004;10.902;2022-12-07T15:41:16;10.50;;;9.50;;
7977;SDS011;4034;48.004;10.902;2022-12-07T15:43:42;10.43;;;9.27;;
7977;SDS011;4034;48.004;10.902;2022-12-07T15:46:30;11.32;;;9.82;;
7977;SDS011;4034;48.004;10.902;2022-12-07T15:48:57;13.63;;;9.55;;
7977;SDS011;4034;48.004;10.902;2022-12-07T15:51:23;10.00;;;9.07;;
7977;SDS011;4034;48.004;10.902;2022-12-07T15:53:49;12.02;;;10.43;;
7977;SDS011;4034;48.004;10.902;2022-12-07T15:56:15;11.20;;;10.20;;
7977;SDS011;4034;48.004;10.902;2022-12-07T15:58:41;11.13;;;10.13;;
7977;SDS011;4034;48.004;10.902;2022-12-07T16:01:14;10.57;;;9.57;;
7977;SDS011;4034;48.004;10.902;2022-12-07T16:03:40;9.88;;;8.98;;
7977;SDS011;4034;48.004;10.902;2022-12-07T16:06:06;9.52;;;8.52;;
7977;SDS011;4034;48.004;10.902;2022-12-07T16:08:32;10.55;;;8.68;;
7977;SDS011;4034;48.004;10.902;2022-12-07T16:10:58;9.45;;;8.30;;
7977;SDS011;4034;48.004;10.902;2022-12-07T16:13:24;9.75;;;8.85;;
7977;SDS011;4034;48.004;10.902;2022-12-07T16:15:50;11.35;;;10.25;;
7977;SDS011;4034;48.004;10.902;2022-12-07T16:18:16;18.08;;;15.10;;
7977;SDS011;4034;48.004;10.902;2022-12-07T16:20:42;24.33;;;16.40;;
7977;SDS011;4034;48.004;10.902;2022-12-07T16:23:08;10.85;;;9.75;;
7977;SDS011;4034;48.004;10.902;2022-12-07T16:25:34;10.23;;;9.23;;
7977;SDS011;4034;48.004;10.902;2022-12-07T16:28:01;9.95;;;9.00;;
7977;SDS011;4034;48.004;10.902;2022-12-07T16:30:27;10.88;;;9.68;;
7977;SDS011;4034;48.004;10.902;2022-12-07T16:32:53;9.27;;;8.47;;
7977;SDS011;4034;48.004;10.902;2022-12-07T16:35:18;10.15;;;9.18;;
7977;SDS011;4034;48.004;10.902;2022-12-07T16:37:44;10.27;;;9.20;;
7977;SDS011;4034;48.004;10.902;2022-12-07T16:40:11;10.02;;;9.02;;
7977;SDS011;4034;48.004;10.902;2022-12-07T16:42:37;9.23;;;8.43;;
7977;SDS011;4034;48.004;10.902;2022-12-07T16:45:03;9.50;;;8.50;;
7977;SDS011;4034;48.004;10.902;2022-12-07T16:47:29;9.68;;;8.68;;
7977;SDS011;4034;48.004;10.902;2022-12-07T16:49:55;10.18;;;9.18;;
7977;SDS011;4034;48.004;10.902;2022-12-07T16:52:21;10.50;;;9.10;;
7977;SDS011;4034;48.004;10.902;2022-12-07T16:54:47;12.15;;;8.43;;
7977;SDS011;4034;48.004;10.902;2022-12-07T16:57:15;9.40;;;8.50;;
7977;SDS011;4034;48.004;10.902;2022-12-07T16:59:41;9.55;;;8.63;;
7977;SDS011;4034;48.004;10.902;2022-12-07T17:02:08;9.73;;;8.82;;
7977;SDS011;4034;48.004;10.902;2022-12-07T17:04:34;10.77;;;9.77;;
7977;SDS011;4034;48.004;10.902;2022-12-07T17:07:02;9.93;;;9.02;;
7977;SDS011;4034;48.004;10.902;2022-12-07T17:09:28;10.18;;;9.18;;